sensor_id;sensor_type;location;lat;lon;timestamp;pressure;altitude;pressure_sealevel;temperature;humidity
51053;BME280;37093;37.716;-122.060;2023-02-16T00:01:29;100650.25;;;16.36;16.38
51053;BME280;37093;37.716;-122.060;2023-02-16T00:06:09;100650.89;;;17.55;15.48
51053;BME280;37093;37.716;-122.060;2023-02-16T00:08:37;100657.53;;;16.96;14.94
51053;BME280;37093;37.716;-122.060;2023-02-16T00:11:14;100662.25;;;16.39;15.84
51053;BME280;37093;37.716;-122.060;2023-02-16T00:13:43;100659.58;;;16.97;15.33
51053;BME280;37093;37.716;-122.060;2023-02-16T00:16:14;100657.82;;;17.15;15.70
51053;BME280;37093;37.716;-122.060;2023-02-16T00:18:43;100652.97;;;17.25;16.48
51053;BME280;37093;37.716;-122.060;2023-02-16T00:21:12;100652.90;;;17.47;15.52
51053;BME280;37093;37.716;-122.060;2023-02-16T00:23:41;100655.93;;;17.26;15.84
51053;BME280;37093;37.716;-122.060;2023-02-16T00:26:14;100653.05;;;17.55;15.00
51053;BME280;37093;37.716;-122.060;2023-02-16T00:28:44;100655.30;;;17.59;15.51
51053;BME280;37093;37.716;-122.060;2023-02-16T00:31:22;100657.75;;;17.06;15.97
51053;BME280;37093;37.716;-122.060;2023-02-16T00:33:50;100662.60;;;17.26;15.68
51053;BME280;37093;37.716;-122.060;2023-02-16T00:36:19;100663.92;;;17.11;15.41
51053;BME280;37093;37.716;-122.060;2023-02-16T00:38:48;100667.01;;;16.77;16.20
51053;BME280;37093;37.716;-122.060;2023-02-16T00:41:18;100667.37;;;16.70;16.53
51053;BME280;37093;37.716;-122.060;2023-02-16T00:43:47;100669.49;;;16.69;16.41
51053;BME280;37093;37.716;-122.060;2023-02-16T00:46:16;100670.58;;;16.39;16.47
51053;BME280;37093;37.716;-122.060;2023-02-16T00:48:44;100668.64;;;16.45;15.73
51053;BME280;37093;37.716;-122.060;2023-02-16T00:51:13;100665.78;;;16.85;15.53
51053;BME280;37093;37.716;-122.060;2023-02-16T00:53:42;100664.55;;;16.91;16.85
51053;BME280;37093;37.716;-122.060;2023-02-16T00:56:15;100663.35;;;16.62;16.72
51053;BME280;37093;37.716;-122.060;2023-02-16T00:58:45;100665.57;;;16.22;16.84
51053;BME280;37093;37.716;-122.060;2023-02-16T01:01:14;100670.58;;;15.55;16.92
51053;BME280;37093;37.716;-122.060;2023-02-16T01:03:45;100668.72;;;16.48;16.55
51053;BME280;37093;37.716;-122.060;2023-02-16T01:06:13;100669.73;;;16.46;17.38
51053;BME280;37093;37.716;-122.060;2023-02-16T01:08:42;100669.95;;;16.30;16.36
51053;BME280;37093;37.716;-122.060;2023-02-16T01:11:10;100672.08;;;16.50;16.83
51053;BME280;37093;37.716;-122.060;2023-02-16T01:13:42;100673.13;;;16.51;17.39
51053;BME280;37093;37.716;-122.060;2023-02-16T01:16:15;100676.95;;;16.74;17.09
51053;BME280;37093;37.716;-122.060;2023-02-16T01:18:45;100678.42;;;16.74;16.06
51053;BME280;37093;37.716;-122.060;2023-02-16T01:21:13;100684.01;;;16.48;16.88
51053;BME280;37093;37.716;-122.060;2023-02-16T01:23:42;100678.32;;;16.95;16.22
51053;BME280;37093;37.716;-122.060;2023-02-16T01:26:13;100680.29;;;16.44;17.52
51053;BME280;37093;37.716;-122.060;2023-02-16T01:28:43;100681.22;;;17.12;18.29
51053;BME280;37093;37.716;-122.060;2023-02-16T01:31:13;100681.49;;;17.15;17.10
51053;BME280;37093;37.716;-122.060;2023-02-16T01:33:42;100687.46;;;17.15;16.68
51053;BME280;37093;37.716;-122.060;2023-02-16T01:36:21;100691.22;;;16.95;16.58
51053;BME280;37093;37.716;-122.060;2023-02-16T01:38:50;100692.53;;;17.00;18.43
51053;BME280;37093;37.716;-122.060;2023-02-16T01:41:27;100691.93;;;16.70;17.43
51053;BME280;37093;37.716;-122.060;2023-02-16T01:44:02;100693.42;;;17.26;17.63
51053;BME280;37093;37.716;-122.060;2023-02-16T01:46:38;100698.80;;;16.74;18.14
51053;BME280;37093;37.716;-122.060;2023-02-16T01:49:11;100703.26;;;16.97;17.94
51053;BME280;37093;37.716;-122.060;2023-02-16T01:51:48;100701.55;;;16.91;18.82
51053;BME280;37093;37.716;-122.060;2023-02-16T01:54:30;100701.58;;;17.16;19.48
51053;BME280;37093;37.716;-122.060;2023-02-16T01:57:05;100699.14;;;16.91;18.01
51053;BME280;37093;37.716;-122.060;2023-02-16T01:59:59;100703.25;;;17.01;18.60
51053;BME280;37093;37.716;-122.060;2023-02-16T02:02:35;100705.48;;;16.91;17.94
51053;BME280;37093;37.716;-122.060;2023-02-16T02:05:14;100708.20;;;16.75;17.87
51053;BME280;37093;37.716;-122.060;2023-02-16T02:07:50;100713.52;;;16.65;18.75
51053;BME280;37093;37.716;-122.060;2023-02-16T02:10:23;100715.31;;;16.51;19.42
51053;BME280;37093;37.716;-122.060;2023-02-16T02:13:01;100719.22;;;16.58;18.67
51053;BME280;37093;37.716;-122.060;2023-02-16T02:15:32;100723.98;;;16.29;19.16
51053;BME280;37093;37.716;-122.060;2023-02-16T02:18:00;100727.19;;;16.45;19.18
51053;BME280;37093;37.716;-122.060;2023-02-16T02:20:40;100726.76;;;16.10;19.89
51053;BME280;37093;37.716;-122.060;2023-02-16T02:23:23;100727.90;;;16.08;18.66
51053;BME280;37093;37.716;-122.060;2023-02-16T02:26:37;100728.91;;;16.00;18.59
51053;BME280;37093;37.716;-122.060;2023-02-16T02:29:22;100731.11;;;16.06;18.99
51053;BME280;37093;37.716;-122.060;2023-02-16T02:32:02;100735.22;;;16.00;19.01
51053;BME280;37093;37.716;-122.060;2023-02-16T02:34:44;100735.12;;;15.82;19.41
51053;BME280;37093;37.716;-122.060;2023-02-16T02:37:22;100740.07;;;15.73;19.37
51053;BME280;37093;37.716;-122.060;2023-02-16T02:40:00;100739.54;;;15.01;21.29
51053;BME280;37093;37.716;-122.060;2023-02-16T02:42:36;100746.16;;;14.41;22.54
51053;BME280;37093;37.716;-122.060;2023-02-16T02:45:11;100747.36;;;13.51;23.32
51053;BME280;37093;37.716;-122.060;2023-02-16T02:47:43;100748.93;;;12.98;23.86
51053;BME280;37093;37.716;-122.060;2023-02-16T02:50:48;100751.89;;;12.55;24.23
51053;BME280;37093;37.716;-122.060;2023-02-16T02:53:18;100744.72;;;12.98;23.97
51053;BME280;37093;37.716;-122.060;2023-02-16T02:55:49;100742.21;;;13.41;23.33
51053;BME280;37093;37.716;-122.060;2023-02-16T02:58:19;100738.84;;;13.75;23.00
51053;BME280;37093;37.716;-122.060;2023-02-16T03:00:51;100741.28;;;13.51;24.22
51053;BME280;37093;37.716;-122.060;2023-02-16T03:03:24;100742.71;;;13.73;22.05
51053;BME280;37093;37.716;-122.060;2023-02-16T03:05:58;100745.03;;;13.81;21.87
51053;BME280;37093;37.716;-122.060;2023-02-16T03:08:30;100742.33;;;13.72;22.32
51053;BME280;37093;37.716;-122.060;2023-02-16T03:11:05;100744.08;;;13.94;22.49
51053;BME280;37093;37.716;-122.060;2023-02-16T03:13:37;100743.16;;;14.42;22.15
51053;BME280;37093;37.716;-122.060;2023-02-16T03:16:09;100747.58;;;14.18;21.71
51053;BME280;37093;37.716;-122.060;2023-02-16T03:18:41;100745.44;;;13.91;22.38
51053;BME280;37093;37.716;-122.060;2023-02-16T03:21:13;100742.98;;;13.65;22.29
51053;BME280;37093;37.716;-122.060;2023-02-16T03:23:42;100744.32;;;13.68;22.28
51053;BME280;37093;37.716;-122.060;2023-02-16T03:26:12;100746.22;;;13.98;22.01
51053;BME280;37093;37.716;-122.060;2023-02-16T03:28:42;100750.88;;;13.89;23.07
51053;BME280;37093;37.716;-122.060;2023-02-16T03:31:14;100757.23;;;14.01;23.31
51053;BME280;37093;37.716;-122.060;2023-02-16T03:33:44;100757.72;;;13.80;23.34
51053;BME280;37093;37.716;-122.060;2023-02-16T03:36:14;100753.55;;;14.31;23.07
51053;BME280;37093;37.716;-122.060;2023-02-16T03:38:43;100753.67;;;14.05;23.04
51053;BME280;37093;37.716;-122.060;2023-02-16T03:41:11;100754.69;;;13.84;23.18
51053;BME280;37093;37.716;-122.060;2023-02-16T03:43:40;100754.09;;;13.72;22.81
51053;BME280;37093;37.716;-122.060;2023-02-16T03:46:08;100756.40;;;13.91;22.78
51053;BME280;37093;37.716;-122.060;2023-02-16T03:48:37;100755.91;;;13.98;22.49
51053;BME280;37093;37.716;-122.060;2023-02-16T03:51:06;100759.19;;;13.74;22.73
51053;BME280;37093;37.716;-122.060;2023-02-16T03:53:34;100768.87;;;13.78;22.42
51053;BME280;37093;37.716;-122.060;2023-02-16T03:56:03;100772.68;;;13.67;21.77
51053;BME280;37093;37.716;-122.060;2023-02-16T03:58:32;100772.17;;;13.72;22.41
51053;BME280;37093;37.716;-122.060;2023-02-16T04:01:00;100770.36;;;13.57;22.19
51053;BME280;37093;37.716;-122.060;2023-02-16T04:03:29;100769.07;;;13.27;22.84
51053;BME280;37093;37.716;-122.060;2023-02-16T04:05:57;100769.08;;;13.32;22.28
51053;BME280;37093;37.716;-122.060;2023-02-16T04:08:26;100767.10;;;13.17;22.81
51053;BME280;37093;37.716;-122.060;2023-02-16T04:10:55;100762.47;;;13.01;23.19
51053;BME280;37093;37.716;-122.060;2023-02-16T04:13:24;100770.35;;;13.42;23.09
51053;BME280;37093;37.716;-122.060;2023-02-16T04:15:52;100773.05;;;12.84;23.23
51053;BME280;37093;37.716;-122.060;2023-02-16T04:18:21;100779.14;;;12.90;22.98
51053;BME280;37093;37.716;-122.060;2023-02-16T04:20:49;100781.16;;;12.79;23.97
51053;BME280;37093;37.716;-122.060;2023-02-16T04:23:18;100782.20;;;12.92;23.43
51053;BME280;37093;37.716;-122.060;2023-02-16T04:25:46;100780.68;;;12.94;23.37
51053;BME280;37093;37.716;-122.060;2023-02-16T04:28:15;100782.07;;;12.97;23.18
51053;BME280;37093;37.716;-122.060;2023-02-16T04:30:44;100780.62;;;12.96;23.71
51053;BME280;37093;37.716;-122.060;2023-02-16T04:33:12;100780.19;;;12.96;22.81
51053;BME280;37093;37.716;-122.060;2023-02-16T04:35:41;100780.44;;;12.71;23.21
51053;BME280;37093;37.716;-122.060;2023-02-16T04:38:10;100782.92;;;12.71;23.47
51053;BME280;37093;37.716;-122.060;2023-02-16T04:40:40;100784.93;;;12.59;23.51
51053;BME280;37093;37.716;-122.060;2023-02-16T04:43:08;100789.26;;;12.61;23.32
51053;BME280;37093;37.716;-122.060;2023-02-16T04:45:36;100787.49;;;12.53;23.80
51053;BME280;37093;37.716;-122.060;2023-02-16T04:48:05;100789.06;;;13.03;23.64
51053;BME280;37093;37.716;-122.060;2023-02-16T04:50:34;100790.26;;;12.75;23.84
51053;BME280;37093;37.716;-122.060;2023-02-16T04:53:02;100790.77;;;12.46;23.74
51053;BME280;37093;37.716;-122.060;2023-02-16T04:55:31;100790.87;;;12.88;23.86
51053;BME280;37093;37.716;-122.060;2023-02-16T04:58:00;100794.57;;;12.52;23.78
51053;BME280;37093;37.716;-122.060;2023-02-16T05:00:28;100798.38;;;12.61;23.56
51053;BME280;37093;37.716;-122.060;2023-02-16T05:02:57;100801.66;;;12.26;24.00
51053;BME280;37093;37.716;-122.060;2023-02-16T05:05:26;100802.19;;;11.93;24.62
51053;BME280;37093;37.716;-122.060;2023-02-16T05:07:54;100803.21;;;12.39;23.84
51053;BME280;37093;37.716;-122.060;2023-02-16T05:10:23;100804.06;;;11.95;24.13
51053;BME280;37093;37.716;-122.060;2023-02-16T05:12:52;100807.01;;;12.14;24.02
51053;BME280;37093;37.716;-122.060;2023-02-16T05:15:21;100806.79;;;11.62;24.43
51053;BME280;37093;37.716;-122.060;2023-02-16T05:17:49;100811.21;;;11.71;24.22
51053;BME280;37093;37.716;-122.060;2023-02-16T05:20:18;100817.03;;;11.74;24.29
51053;BME280;37093;37.716;-122.060;2023-02-16T05:22:46;100819.00;;;11.85;24.22
51053;BME280;37093;37.716;-122.060;2023-02-16T05:25:15;100818.58;;;11.89;25.21
51053;BME280;37093;37.716;-122.060;2023-02-16T05:27:44;100817.89;;;11.94;24.86
51053;BME280;37093;37.716;-122.060;2023-02-16T05:30:14;100815.58;;;12.04;24.95
51053;BME280;37093;37.716;-122.060;2023-02-16T05:32:42;100813.52;;;12.11;25.36
51053;BME280;37093;37.716;-122.060;2023-02-16T05:35:11;100816.95;;;11.54;24.88
51053;BME280;37093;37.716;-122.060;2023-02-16T05:37:39;100816.94;;;11.96;24.72
51053;BME280;37093;37.716;-122.060;2023-02-16T05:40:09;100817.07;;;12.02;24.48
51053;BME280;37093;37.716;-122.060;2023-02-16T05:42:38;100815.51;;;11.99;24.92
51053;BME280;37093;37.716;-122.060;2023-02-16T05:45:07;100816.05;;;11.72;25.28
51053;BME280;37093;37.716;-122.060;2023-02-16T05:47:36;100815.60;;;11.61;25.23
51053;BME280;37093;37.716;-122.060;2023-02-16T05:50:06;100821.21;;;11.75;25.11
51053;BME280;37093;37.716;-122.060;2023-02-16T05:52:34;100822.22;;;11.44;25.04
51053;BME280;37093;37.716;-122.060;2023-02-16T05:55:03;100825.09;;;11.76;25.33
51053;BME280;37093;37.716;-122.060;2023-02-16T05:57:32;100829.99;;;11.31;25.07
51053;BME280;37093;37.716;-122.060;2023-02-16T06:00:01;100838.30;;;11.27;25.25
51053;BME280;37093;37.716;-122.060;2023-02-16T06:02:30;100841.39;;;11.30;25.46
51053;BME280;37093;37.716;-122.060;2023-02-16T06:04:59;100847.29;;;11.45;25.25
51053;BME280;37093;37.716;-122.060;2023-02-16T06:07:28;100849.60;;;11.18;25.75
51053;BME280;37093;37.716;-122.060;2023-02-16T06:09:56;100851.99;;;11.46;25.56
51053;BME280;37093;37.716;-122.060;2023-02-16T06:12:25;100852.13;;;10.89;24.91
51053;BME280;37093;37.716;-122.060;2023-02-16T06:14:54;100847.72;;;11.24;25.24
51053;BME280;37093;37.716;-122.060;2023-02-16T06:17:23;100848.52;;;11.43;26.05
51053;BME280;37093;37.716;-122.060;2023-02-16T06:19:51;100849.23;;;11.50;25.86
51053;BME280;37093;37.716;-122.060;2023-02-16T06:22:20;100843.62;;;11.27;25.92
51053;BME280;37093;37.716;-122.060;2023-02-16T06:24:48;100848.57;;;11.01;25.55
51053;BME280;37093;37.716;-122.060;2023-02-16T06:27:17;100849.67;;;11.07;25.40
51053;BME280;37093;37.716;-122.060;2023-02-16T06:29:46;100846.06;;;11.23;25.53
51053;BME280;37093;37.716;-122.060;2023-02-16T06:32:14;100845.59;;;11.09;26.53
51053;BME280;37093;37.716;-122.060;2023-02-16T06:34:43;100845.22;;;10.83;26.98
51053;BME280;37093;37.716;-122.060;2023-02-16T06:37:12;100847.63;;;11.16;26.43
51053;BME280;37093;37.716;-122.060;2023-02-16T06:39:40;100850.37;;;10.78;26.49
51053;BME280;37093;37.716;-122.060;2023-02-16T06:42:09;100850.13;;;10.67;26.90
51053;BME280;37093;37.716;-122.060;2023-02-16T06:44:39;100845.11;;;10.90;26.93
51053;BME280;37093;37.716;-122.060;2023-02-16T06:47:06;100845.27;;;10.70;26.20
51053;BME280;37093;37.716;-122.060;2023-02-16T06:49:35;100839.41;;;10.55;26.64
51053;BME280;37093;37.716;-122.060;2023-02-16T06:52:04;100831.98;;;11.17;26.43
51053;BME280;37093;37.716;-122.060;2023-02-16T06:54:32;100826.79;;;10.73;26.54
51053;BME280;37093;37.716;-122.060;2023-02-16T06:57:01;100826.98;;;10.73;26.76
51053;BME280;37093;37.716;-122.060;2023-02-16T06:59:30;100832.09;;;10.32;26.63
51053;BME280;37093;37.716;-122.060;2023-02-16T07:01:59;100833.50;;;10.34;26.32
51053;BME280;37093;37.716;-122.060;2023-02-16T07:04:27;100837.06;;;10.45;25.96
51053;BME280;37093;37.716;-122.060;2023-02-16T07:06:56;100834.02;;;10.47;25.97
51053;BME280;37093;37.716;-122.060;2023-02-16T07:09:25;100833.46;;;10.45;25.88
51053;BME280;37093;37.716;-122.060;2023-02-16T07:11:53;100838.66;;;10.83;25.83
51053;BME280;37093;37.716;-122.060;2023-02-16T07:14:22;100837.38;;;10.56;25.99
51053;BME280;37093;37.716;-122.060;2023-02-16T07:16:51;100839.17;;;10.83;26.42
51053;BME280;37093;37.716;-122.060;2023-02-16T07:19:19;100840.78;;;10.57;26.60
51053;BME280;37093;37.716;-122.060;2023-02-16T07:21:48;100842.83;;;10.27;26.91
51053;BME280;37093;37.716;-122.060;2023-02-16T07:24:17;100839.88;;;10.58;26.75
51053;BME280;37093;37.716;-122.060;2023-02-16T07:26:45;100840.14;;;10.51;27.01
51053;BME280;37093;37.716;-122.060;2023-02-16T07:29:14;100840.53;;;10.17;26.94
51053;BME280;37093;37.716;-122.060;2023-02-16T07:31:43;100840.48;;;10.43;27.34
51053;BME280;37093;37.716;-122.060;2023-02-16T07:34:11;100845.95;;;10.17;27.29
51053;BME280;37093;37.716;-122.060;2023-02-16T07:36:40;100846.21;;;10.27;27.28
51053;BME280;37093;37.716;-122.060;2023-02-16T07:39:09;100851.00;;;9.77;27.85
51053;BME280;37093;37.716;-122.060;2023-02-16T07:41:37;100850.74;;;10.28;28.44
51053;BME280;37093;37.716;-122.060;2023-02-16T07:44:06;100849.44;;;9.99;28.94
51053;BME280;37093;37.716;-122.060;2023-02-16T07:46:36;100846.28;;;9.80;29.49
51053;BME280;37093;37.716;-122.060;2023-02-16T07:49:04;100842.55;;;10.09;28.46
51053;BME280;37093;37.716;-122.060;2023-02-16T07:51:33;100839.87;;;9.70;28.88
51053;BME280;37093;37.716;-122.060;2023-02-16T07:54:02;100842.21;;;7.65;30.93
51053;BME280;37093;37.716;-122.060;2023-02-16T07:56:32;100838.01;;;8.84;30.12
51053;BME280;37093;37.716;-122.060;2023-02-16T07:59:02;100834.77;;;8.84;29.54
51053;BME280;37093;37.716;-122.060;2023-02-16T08:01:12;100832.58;;;8.55;29.19
51053;BME280;37093;37.716;-122.060;2023-02-16T08:03:41;100825.51;;;8.41;27.35
51053;BME280;37093;37.716;-122.060;2023-02-16T08:06:10;100824.05;;;9.77;26.29
51053;BME280;37093;37.716;-122.060;2023-02-16T08:08:39;100824.47;;;10.87;25.65
51053;BME280;37093;37.716;-122.060;2023-02-16T08:11:09;100820.44;;;10.10;26.93
51053;BME280;37093;37.716;-122.060;2023-02-16T08:13:38;100821.37;;;10.11;27.09
51053;BME280;37093;37.716;-122.060;2023-02-16T08:16:09;100823.70;;;10.34;27.17
51053;BME280;37093;37.716;-122.060;2023-02-16T08:18:38;100820.47;;;10.04;27.50
51053;BME280;37093;37.716;-122.060;2023-02-16T08:21:09;100814.93;;;10.22;27.61
51053;BME280;37093;37.716;-122.060;2023-02-16T08:23:37;100821.63;;;10.13;27.45
51053;BME280;37093;37.716;-122.060;2023-02-16T08:26:08;100820.58;;;9.69;27.70
51053;BME280;37093;37.716;-122.060;2023-02-16T08:28:37;100809.73;;;9.63;28.29
51053;BME280;37093;37.716;-122.060;2023-02-16T08:31:06;100810.60;;;9.88;28.10
51053;BME280;37093;37.716;-122.060;2023-02-16T08:33:35;100807.59;;;10.09;27.74
51053;BME280;37093;37.716;-122.060;2023-02-16T08:36:04;100806.16;;;9.54;27.85
51053;BME280;37093;37.716;-122.060;2023-02-16T08:38:32;100805.03;;;9.41;28.48
51053;BME280;37093;37.716;-122.060;2023-02-16T08:41:01;100806.45;;;9.48;29.03
51053;BME280;37093;37.716;-122.060;2023-02-16T08:43:29;100806.43;;;8.74;28.56
51053;BME280;37093;37.716;-122.060;2023-02-16T08:45:58;100806.28;;;8.51;29.48
51053;BME280;37093;37.716;-122.060;2023-02-16T08:48:27;100808.57;;;8.83;29.45
51053;BME280;37093;37.716;-122.060;2023-02-16T08:50:55;100806.11;;;8.02;30.22
51053;BME280;37093;37.716;-122.060;2023-02-16T08:53:24;100805.74;;;8.77;29.85
51053;BME280;37093;37.716;-122.060;2023-02-16T08:55:54;100807.22;;;8.72;29.82
51053;BME280;37093;37.716;-122.060;2023-02-16T08:58:24;100810.37;;;8.51;29.71
51053;BME280;37093;37.716;-122.060;2023-02-16T09:00:53;100813.41;;;8.68;29.12
51053;BME280;37093;37.716;-122.060;2023-02-16T09:03:21;100812.54;;;8.90;29.12
51053;BME280;37093;37.716;-122.060;2023-02-16T09:05:51;100812.37;;;8.52;29.09
51053;BME280;37093;37.716;-122.060;2023-02-16T09:08:20;100812.56;;;9.02;28.35
51053;BME280;37093;37.716;-122.060;2023-02-16T09:10:48;100816.02;;;9.13;28.72
51053;BME280;37093;37.716;-122.060;2023-02-16T09:13:17;100810.87;;;9.09;28.02
51053;BME280;37093;37.716;-122.060;2023-02-16T09:15:46;100810.73;;;9.11;28.04
51053;BME280;37093;37.716;-122.060;2023-02-16T09:18:14;100813.24;;;9.21;28.19
51053;BME280;37093;37.716;-122.060;2023-02-16T09:20:44;100815.90;;;9.23;28.01
51053;BME280;37093;37.716;-122.060;2023-02-16T09:23:13;100822.64;;;9.29;28.37
51053;BME280;37093;37.716;-122.060;2023-02-16T09:25:42;100822.63;;;9.27;28.38
51053;BME280;37093;37.716;-122.060;2023-02-16T09:28:10;100821.35;;;9.08;27.54
51053;BME280;37093;37.716;-122.060;2023-02-16T09:30:39;100825.28;;;9.20;27.67
51053;BME280;37093;37.716;-122.060;2023-02-16T09:33:08;100830.19;;;9.21;27.92
51053;BME280;37093;37.716;-122.060;2023-02-16T09:35:38;100832.13;;;8.85;28.29
51053;BME280;37093;37.716;-122.060;2023-02-16T09:38:07;100828.32;;;9.08;28.37
51053;BME280;37093;37.716;-122.060;2023-02-16T09:40:36;100827.79;;;9.07;27.80
51053;BME280;37093;37.716;-122.060;2023-02-16T09:43:11;100830.30;;;8.91;28.16
51053;BME280;37093;37.716;-122.060;2023-02-16T09:45:47;100827.40;;;8.94;27.65
51053;BME280;37093;37.716;-122.060;2023-02-16T09:48:22;100828.16;;;9.12;27.72
51053;BME280;37093;37.716;-122.060;2023-02-16T09:50:54;100829.99;;;9.07;29.10
51053;BME280;37093;37.716;-122.060;2023-02-16T09:53:29;100830.49;;;9.02;28.32
51053;BME280;37093;37.716;-122.060;2023-02-16T09:56:07;100823.65;;;8.90;28.22
51053;BME280;37093;37.716;-122.060;2023-02-16T09:58:44;100820.45;;;8.92;28.74
51053;BME280;37093;37.716;-122.060;2023-02-16T10:01:21;100818.23;;;9.16;28.95
51053;BME280;37093;37.716;-122.060;2023-02-16T10:03:59;100814.75;;;9.10;28.46
51053;BME280;37093;37.716;-122.060;2023-02-16T10:06:41;100814.62;;;8.84;28.60
51053;BME280;37093;37.716;-122.060;2023-02-16T10:09:14;100809.68;;;8.71;28.40
51053;BME280;37093;37.716;-122.060;2023-02-16T10:11:47;100807.51;;;9.18;28.71
51053;BME280;37093;37.716;-122.060;2023-02-16T10:14:25;100810.23;;;9.18;29.31
51053;BME280;37093;37.716;-122.060;2023-02-16T10:17:02;100811.68;;;9.23;28.70
51053;BME280;37093;37.716;-122.060;2023-02-16T10:19:36;100810.55;;;9.18;28.43
51053;BME280;37093;37.716;-122.060;2023-02-16T10:22:11;100809.87;;;8.84;28.44
51053;BME280;37093;37.716;-122.060;2023-02-16T10:24:50;100803.88;;;9.16;29.33
51053;BME280;37093;37.716;-122.060;2023-02-16T10:27:21;100801.83;;;9.39;28.92
51053;BME280;37093;37.716;-122.060;2023-02-16T10:29:51;100800.77;;;9.06;29.35
51053;BME280;37093;37.716;-122.060;2023-02-16T10:32:25;100799.89;;;8.97;29.03
51053;BME280;37093;37.716;-122.060;2023-02-16T10:35:01;100806.21;;;8.87;29.27
51053;BME280;37093;37.716;-122.060;2023-02-16T10:37:44;100806.21;;;8.87;29.48
51053;BME280;37093;37.716;-122.060;2023-02-16T10:40:25;100801.45;;;8.81;29.52
51053;BME280;37093;37.716;-122.060;2023-02-16T10:42:59;100794.44;;;8.82;29.66
51053;BME280;37093;37.716;-122.060;2023-02-16T10:45:34;100793.96;;;8.52;30.05
51053;BME280;37093;37.716;-122.060;2023-02-16T10:48:04;100793.00;;;8.75;30.24
51053;BME280;37093;37.716;-122.060;2023-02-16T10:50:37;100790.44;;;8.21;30.93
51053;BME280;37093;37.716;-122.060;2023-02-16T10:53:13;100782.07;;;8.27;30.61
51053;BME280;37093;37.716;-122.060;2023-02-16T10:55:43;100781.93;;;8.03;30.49
51053;BME280;37093;37.716;-122.060;2023-02-16T10:58:18;100784.32;;;8.32;30.28
51053;BME280;37093;37.716;-122.060;2023-02-16T11:00:51;100780.77;;;8.21;30.50
51053;BME280;37093;37.716;-122.060;2023-02-16T11:03:23;100783.93;;;8.36;30.45
51053;BME280;37093;37.716;-122.060;2023-02-16T11:05:53;100786.65;;;8.36;30.19
51053;BME280;37093;37.716;-122.060;2023-02-16T11:08:21;100784.93;;;8.68;29.61
51053;BME280;37093;37.716;-122.060;2023-02-16T11:10:51;100783.52;;;8.93;29.69
51053;BME280;37093;37.716;-122.060;2023-02-16T11:13:25;100781.77;;;8.65;29.33
51053;BME280;37093;37.716;-122.060;2023-02-16T11:15:57;100783.52;;;9.22;29.19
51053;BME280;37093;37.716;-122.060;2023-02-16T11:18:32;100779.33;;;8.75;29.52
51053;BME280;37093;37.716;-122.060;2023-02-16T11:21:01;100778.21;;;8.52;29.21
51053;BME280;37093;37.716;-122.060;2023-02-16T11:23:31;100776.83;;;9.00;29.24
51053;BME280;37093;37.716;-122.060;2023-02-16T11:26:03;100776.04;;;9.07;29.19
51053;BME280;37093;37.716;-122.060;2023-02-16T11:28:34;100774.23;;;9.38;29.31
51053;BME280;37093;37.716;-122.060;2023-02-16T11:31:12;100772.63;;;8.76;29.38
51053;BME280;37093;37.716;-122.060;2023-02-16T11:33:52;100768.86;;;8.81;29.38
51053;BME280;37093;37.716;-122.060;2023-02-16T11:36:28;100765.82;;;8.86;29.20
51053;BME280;37093;37.716;-122.060;2023-02-16T11:39:01;100764.36;;;8.87;29.24
51053;BME280;37093;37.716;-122.060;2023-02-16T11:41:32;100764.59;;;8.95;29.29
51053;BME280;37093;37.716;-122.060;2023-02-16T11:44:01;100761.70;;;8.51;29.62
51053;BME280;37093;37.716;-122.060;2023-02-16T11:46:38;100757.58;;;9.07;29.49
51053;BME280;37093;37.716;-122.060;2023-02-16T11:49:30;100760.17;;;8.53;29.65
51053;BME280;37093;37.716;-122.060;2023-02-16T11:51:59;100757.95;;;9.09;29.40
51053;BME280;37093;37.716;-122.060;2023-02-16T11:54:29;100759.85;;;9.19;29.25
51053;BME280;37093;37.716;-122.060;2023-02-16T11:57:02;100760.21;;;9.03;29.26
51053;BME280;37093;37.716;-122.060;2023-02-16T11:59:35;100763.73;;;8.86;29.75
51053;BME280;37093;37.716;-122.060;2023-02-16T12:02:48;100770.12;;;8.78;30.20
51053;BME280;37093;37.716;-122.060;2023-02-16T12:05:29;100773.63;;;8.42;30.45
51053;BME280;37093;37.716;-122.060;2023-02-16T12:08:28;100774.93;;;8.67;30.48
51053;BME280;37093;37.716;-122.060;2023-02-16T12:11:13;100779.13;;;8.58;30.89
51053;BME280;37093;37.716;-122.060;2023-02-16T12:13:47;100773.86;;;8.54;31.11
51053;BME280;37093;37.716;-122.060;2023-02-16T12:16:26;100772.20;;;8.55;30.91
51053;BME280;37093;37.716;-122.060;2023-02-16T12:19:12;100766.66;;;8.44;30.91
51053;BME280;37093;37.716;-122.060;2023-02-16T12:21:45;100762.18;;;7.83;30.91
51053;BME280;37093;37.716;-122.060;2023-02-16T12:24:25;100763.06;;;8.27;31.05
51053;BME280;37093;37.716;-122.060;2023-02-16T12:26:58;100759.33;;;8.36;30.90
51053;BME280;37093;37.716;-122.060;2023-02-16T12:29:38;100752.29;;;8.34;30.61
51053;BME280;37093;37.716;-122.060;2023-02-16T12:32:19;100749.52;;;8.49;30.69
51053;BME280;37093;37.716;-122.060;2023-02-16T12:35:02;100741.20;;;8.63;30.90
51053;BME280;37093;37.716;-122.060;2023-02-16T12:37:40;100741.57;;;7.78;30.48
51053;BME280;37093;37.716;-122.060;2023-02-16T12:40:21;100742.02;;;8.31;30.88
51053;BME280;37093;37.716;-122.060;2023-02-16T12:43:01;100743.09;;;8.60;31.00
51053;BME280;37093;37.716;-122.060;2023-02-16T12:45:39;100738.28;;;8.44;30.71
51053;BME280;37093;37.716;-122.060;2023-02-16T12:48:21;100741.76;;;8.62;30.88